Sedov — UELO — position and weather

sailwx.info

Track history (hours):
 
Tides and Currents Weather Stations Pressure Air Temp Water Temp Dewpoint Dewpoint Depression Visibility Wind Speed Wind Dir Waves Ship Positions

Sedov (Russia)

Last reported at 2014-Nov-15 02:24 UTC. Time now 2014-Nov-26 20:23 UTC.
Position N 54°43' E 019°40'.
Warning: this ship's position is 11 days out of date.

Length 118 m; draft 6.2 m.

Type: Sailing vessel. MMSI: 273510000.

Date/timePositionNaut miles runAvg speedWind from/ knotsBaromVisibWave heightAir tempDewpointWater temp
2014-Nov-15 02:24N 54°43' E 019°40'6 6.5
2014-Nov-15 01:32N 54°48' E 019°39'314 7.6
2014-Nov-13 08:08N 59°39' E 023°21'710.1
2014-Nov-13 07:29N 59°40' E 023°34'1010.4
2014-Nov-13 06:33N 59°43' E 023°52'1110.3
2014-Nov-13 05:27N 59°46' E 024°14'910.2
2014-Nov-13 04:34N 59°48' E 024°31'62 9.8
2014-Nov-12 22:15N 60°02' E 026°32'7 9.7
2014-Nov-12 21:33N 60°01' E 026°46'105 8.1
2014-Nov-12 08:33N 59°56' E 030°16'0 0.3
2014-Nov-12 07:32N 59°56' E 030°17'0 0.0
2014-Nov-12 06:32N 59°56' E 030°17'0 0.0
2014-Nov-12 05:32N 59°56' E 030°17'0 0.0
2014-Nov-12 04:32N 59°56' E 030°17'0 0.0
2014-Nov-12 03:32N 59°56' E 030°17'0 0.0
2014-Nov-12 02:32N 59°56' E 030°17'0 0.0
2014-Nov-12 01:32N 59°56' E 030°17'0 0.0
2014-Nov-12 00:32N 59°56' E 030°17'0 0.0
2014-Nov-11 23:32N 59°56' E 030°17'0 0.0
2014-Nov-11 22:32N 59°56' E 030°17'0 0.0
2014-Nov-11 21:29N 59°56' E 030°17'0 0.0
2014-Nov-11 20:32N 59°56' E 030°17'0 0.0
2014-Nov-11 19:29N 59°56' E 030°17'0 0.0
2014-Nov-11 18:32N 59°56' E 030°17'0 0.0
2014-Nov-11 17:32N 59°56' E 030°17'0 0.0
2014-Nov-11 16:32N 59°56' E 030°17'0 0.0
2014-Nov-11 15:29N 59°56' E 030°17'0 0.0
2014-Nov-11 14:32N 59°56' E 030°17'0 0.0
2014-Nov-11 13:32N 59°56' E 030°17'0 0.0
2014-Nov-11 12:32N 59°56' E 030°17'0 0.0
2014-Nov-11 11:32N 59°56' E 030°17'0 0.0
2014-Nov-11 10:32N 59°56' E 030°17'0 0.0
2014-Nov-11 09:32N 59°56' E 030°17'0 0.0
2014-Nov-11 08:32N 59°56' E 030°17'0 0.0
2014-Nov-11 07:32N 59°56' E 030°17'0 0.0
2014-Nov-11 06:32N 59°56' E 030°17'0 0.0
2014-Nov-11 05:32N 59°56' E 030°17'0 0.0
2014-Nov-11 04:32N 59°56' E 030°17'0 0.0
2014-Nov-11 03:32N 59°56' E 030°17'0 0.0
2014-Nov-11 02:32N 59°56' E 030°17'0 0.0
2014-Nov-11 01:32N 59°56' E 030°17'0 0.0
2014-Nov-11 00:32N 59°56' E 030°17'0 0.0
2014-Nov-10 23:32N 59°56' E 030°17'0 0.0
2014-Nov-10 22:32N 59°56' E 030°17'0 0.0
2014-Nov-10 21:32N 59°56' E 030°17'0 0.0
2014-Nov-10 20:32N 59°56' E 030°17'0 0.0
2014-Nov-10 19:32N 59°56' E 030°17'0 0.0
2014-Nov-10 18:32N 59°56' E 030°17'0 0.0
2014-Nov-10 17:32N 59°56' E 030°17'0 0.0
2014-Nov-10 16:32N 59°56' E 030°17'0 0.0
2014-Nov-10 15:32N 59°56' E 030°17'0 0.0
2014-Nov-10 14:32N 59°56' E 030°17'0 0.0
2014-Nov-10 13:32N 59°56' E 030°17'0 0.0
2014-Nov-10 12:32N 59°56' E 030°17'0 0.0
2014-Nov-10 11:32N 59°56' E 030°17'0 0.0
2014-Nov-10 10:32N 59°56' E 030°17'0 0.0
2014-Nov-10 09:32N 59°56' E 030°17'0 0.0
2014-Nov-10 08:32N 59°56' E 030°17'0 0.0
2014-Nov-10 07:32N 59°56' E 030°17'0 0.0
2014-Nov-10 06:32N 59°56' E 030°17'0 0.0
2014-Nov-10 05:32N 59°56' E 030°17'0 0.0
2014-Nov-10 04:32N 59°56' E 030°17'0 0.0
2014-Nov-10 03:32N 59°56' E 030°17'0 0.0
2014-Nov-10 02:32N 59°56' E 030°17'0 0.0
2014-Nov-10 01:32N 59°56' E 030°17'0 0.0
2014-Nov-10 00:29N 59°56' E 030°17'0 0.0
2014-Nov-09 23:32N 59°56' E 030°17'0 0.0
2014-Nov-09 22:32N 59°56' E 030°17'0 0.0
2014-Nov-09 21:32N 59°56' E 030°17'0 0.0
2014-Nov-09 20:32N 59°56' E 030°17'0 0.0
2014-Nov-09 19:32N 59°56' E 030°17'0 0.0
2014-Nov-09 18:32N 59°56' E 030°17'0 0.0
2014-Nov-09 17:32N 59°56' E 030°17'0 0.0
2014-Nov-09 16:32N 59°56' E 030°17'0 0.0
2014-Nov-09 15:32N 59°56' E 030°17'0 0.0
2014-Nov-09 14:29N 59°56' E 030°17'0 0.0
2014-Nov-09 13:32N 59°56' E 030°17'0 0.0
2014-Nov-09 12:32N 59°56' E 030°17'0 0.0
2014-Nov-09 11:32N 59°56' E 030°17'0 0.0
2014-Nov-09 10:32N 59°56' E 030°17'0 0.0
2014-Nov-09 09:32N 59°56' E 030°17'0 0.0
2014-Nov-09 08:32N 59°56' E 030°17'0 0.0
2014-Nov-09 07:32N 59°56' E 030°17'0 0.0
2014-Nov-09 06:32N 59°56' E 030°17'0 0.0
2014-Nov-09 05:32N 59°56' E 030°17'0 0.0
2014-Nov-09 04:32N 59°56' E 030°17'0 0.0
2014-Nov-09 03:32N 59°56' E 030°17'0 0.0
2014-Nov-09 02:32N 59°56' E 030°17'0 0.0
2014-Nov-09 01:32N 59°56' E 030°17'0 0.0
2014-Nov-09 00:32N 59°56' E 030°17'0 0.0
2014-Nov-08 23:32N 59°56' E 030°17'0 0.0
2014-Nov-08 22:32N 59°56' E 030°17'0 0.0
2014-Nov-08 21:32N 59°56' E 030°17'0 0.0
2014-Nov-08 20:32N 59°56' E 030°17'0 0.0
2014-Nov-08 19:32N 59°56' E 030°17'0 0.0
2014-Nov-08 18:32N 59°56' E 030°17'0 0.0
2014-Nov-08 17:32N 59°56' E 030°17'0 0.0
2014-Nov-08 16:32N 59°56' E 030°17'0 0.0
2014-Nov-08 15:32N 59°56' E 030°17'0 0.0
2014-Nov-08 14:32N 59°56' E 030°17'0 0.0
2014-Nov-08 13:32N 59°56' E 030°17'0 0.0
2014-Nov-08 12:32N 59°56' E 030°17'0 0.0
2014-Nov-08 11:29N 59°56' E 030°17'0 0.0
2014-Nov-08 10:32N 59°56' E 030°17'0 0.0
2014-Nov-08 09:32N 59°56' E 030°17'0 0.0
2014-Nov-08 08:32N 59°56' E 030°17'0 0.0
2014-Nov-08 07:29N 59°56' E 030°17'0 0.0
2014-Nov-08 06:32N 59°56' E 030°17'0 0.0
2014-Nov-08 05:32N 59°56' E 030°17'0 0.0
2014-Nov-08 04:32N 59°56' E 030°17'0 0.0
2014-Nov-08 03:32N 59°56' E 030°17'0 0.0
2014-Nov-08 02:32N 59°56' E 030°17'0 0.0
2014-Nov-08 01:32N 59°56' E 030°17'0 0.0
2014-Nov-08 00:32N 59°56' E 030°17'0 0.0
2014-Nov-07 23:32N 59°56' E 030°17'0 0.0
2014-Nov-07 22:32N 59°56' E 030°17'0 0.0
2014-Nov-07 21:32N 59°56' E 030°17'0 0.0
2014-Nov-07 20:32N 59°56' E 030°17'0 0.0
2014-Nov-07 19:32N 59°56' E 030°17'0 0.0
2014-Nov-07 18:32N 59°56' E 030°17'0 0.0
2014-Nov-07 17:32N 59°56' E 030°17'0 0.0
2014-Nov-07 16:32N 59°56' E 030°17'0 0.0
2014-Nov-07 15:32N 59°56' E 030°17'0 0.0
2014-Nov-07 14:32N 59°56' E 030°17'0 0.0
2014-Nov-07 13:32N 59°56' E 030°17'0 0.0
2014-Nov-07 12:32N 59°56' E 030°17'0 0.0
2014-Nov-07 11:32N 59°56' E 030°17'0 0.0
2014-Nov-07 10:29N 59°56' E 030°17'0 0.0
2014-Nov-07 09:32N 59°56' E 030°17'0 0.0
2014-Nov-07 08:32N 59°56' E 030°17'0 0.0
2014-Nov-07 07:32N 59°56' E 030°17'0 0.0
2014-Nov-07 06:32N 59°56' E 030°17'0 0.0
2014-Nov-07 05:32N 59°56' E 030°17'0 0.0
2014-Nov-07 04:32N 59°56' E 030°17'0 0.0
2014-Nov-07 03:32N 59°56' E 030°17'0 0.0
2014-Nov-07 02:32N 59°56' E 030°17'0 0.0
2014-Nov-07 01:32N 59°56' E 030°17'0 0.0
2014-Nov-07 00:32N 59°56' E 030°17'0 0.0
2014-Nov-06 23:32N 59°56' E 030°17'0 0.0
2014-Nov-06 22:32N 59°56' E 030°17'0 0.0
2014-Nov-06 21:32N 59°56' E 030°17'0 0.0
2014-Nov-06 20:32N 59°56' E 030°17'0 0.0
2014-Nov-06 19:32N 59°56' E 030°17'0 0.0
2014-Nov-06 18:32N 59°56' E 030°17'0 0.0
2014-Nov-06 17:29N 59°56' E 030°17'0 0.0
2014-Nov-06 16:32N 59°56' E 030°17'0 0.0
2014-Nov-06 15:32N 59°56' E 030°17'0 0.0
2014-Nov-06 14:32N 59°56' E 030°17'0 0.0
2014-Nov-06 13:32N 59°56' E 030°17'0 0.0
2014-Nov-06 12:32N 59°56' E 030°17'0 0.0
2014-Nov-06 11:32N 59°56' E 030°17'0 0.0
2014-Nov-06 10:29N 59°56' E 030°17'0 0.0
2014-Nov-06 09:32N 59°56' E 030°17'0 0.0
2014-Nov-06 08:32N 59°56' E 030°17'0 0.0
2014-Nov-06 07:29N 59°56' E 030°17'0 0.0
2014-Nov-06 06:32N 59°56' E 030°17'0 0.0
2014-Nov-06 05:32N 59°56' E 030°17'0 0.0
2014-Nov-06 04:32N 59°56' E 030°17'0 0.0
2014-Nov-06 03:32N 59°56' E 030°17'0 0.0
2014-Nov-06 02:32N 59°56' E 030°17'0 0.0
2014-Nov-06 01:32N 59°56' E 030°17'0 0.0
2014-Nov-06 00:32N 59°56' E 030°17'0 0.0
2014-Nov-05 23:32N 59°56' E 030°17'0 0.0
2014-Nov-05 22:32N 59°56' E 030°17'0 0.0
2014-Nov-05 21:32N 59°56' E 030°17'0 0.0
2014-Nov-05 20:32N 59°56' E 030°17'0 0.0
2014-Nov-05 19:32N 59°56' E 030°17'0 0.0
2014-Nov-05 18:32N 59°56' E 030°17'0 0.0
2014-Nov-05 17:32N 59°56' E 030°17'0 0.0
2014-Nov-05 16:32N 59°56' E 030°17'0 0.0
2014-Nov-05 15:32N 59°56' E 030°17'0 0.0
2014-Nov-05 14:32N 59°56' E 030°17'0 0.0
2014-Nov-05 13:32N 59°56' E 030°17'0 0.0
2014-Nov-05 12:32N 59°56' E 030°17'0 0.0
2014-Nov-05 11:32N 59°56' E 030°17'0 0.0
2014-Nov-05 10:32N 59°56' E 030°17'0 0.0
2014-Nov-05 09:32N 59°56' E 030°17'0 0.0
2014-Nov-05 08:32N 59°56' E 030°17'0 0.0
2014-Nov-05 07:32N 59°56' E 030°17'0 0.0
2014-Nov-05 06:32N 59°56' E 030°17'0 0.0
2014-Nov-05 05:32N 59°56' E 030°17'0 0.0
2014-Nov-05 04:32N 59°56' E 030°17'0 0.0
2014-Nov-05 03:32N 59°56' E 030°17'0 0.0
2014-Nov-05 02:32N 59°56' E 030°17'  
Track history (hours):
 
Tides and Currents Weather Stations Pressure Air Temp Water Temp Dewpoint Dewpoint Depression Visibility Wind Speed Wind Dir Waves Ship Positions

Sedov (Russia)

Last reported at 2014-Nov-15 02:24 UTC. Time now 2014-Nov-26 20:23 UTC.
Position N 54°43' E 019°40'.
Warning: this ship's position is 11 days out of date.

Length 118 m; draft 6.2 m.

Type: Sailing vessel. MMSI: 273510000.

Date/timePositionNaut miles runAvg speedWind from/ knotsBaromVisibWave heightAir tempDewpointWater temp
2014-Nov-15 02:24N 54°43' E 019°40'6 6.5
2014-Nov-15 01:32N 54°48' E 019°39'314 7.6
2014-Nov-13 08:08N 59°39' E 023°21'710.1
2014-Nov-13 07:29N 59°40' E 023°34'1010.4
2014-Nov-13 06:33N 59°43' E 023°52'1110.3
2014-Nov-13 05:27N 59°46' E 024°14'910.2
2014-Nov-13 04:34N 59°48' E 024°31'62 9.8
2014-Nov-12 22:15N 60°02' E 026°32'7 9.7
2014-Nov-12 21:33N 60°01' E 026°46'105 8.1
2014-Nov-12 08:33N 59°56' E 030°16'0 0.3
2014-Nov-12 07:32N 59°56' E 030°17'0 0.0
2014-Nov-12 06:32N 59°56' E 030°17'0 0.0
2014-Nov-12 05:32N 59°56' E 030°17'0 0.0
2014-Nov-12 04:32N 59°56' E 030°17'0 0.0
2014-Nov-12 03:32N 59°56' E 030°17'0 0.0
2014-Nov-12 02:32N 59°56' E 030°17'0 0.0
2014-Nov-12 01:32N 59°56' E 030°17'0 0.0
2014-Nov-12 00:32N 59°56' E 030°17'0 0.0
2014-Nov-11 23:32N 59°56' E 030°17'0 0.0
2014-Nov-11 22:32N 59°56' E 030°17'0 0.0
2014-Nov-11 21:29N 59°56' E 030°17'0 0.0
2014-Nov-11 20:32N 59°56' E 030°17'0 0.0
2014-Nov-11 19:29N 59°56' E 030°17'0 0.0
2014-Nov-11 18:32N 59°56' E 030°17'0 0.0
2014-Nov-11 17:32N 59°56' E 030°17'0 0.0
2014-Nov-11 16:32N 59°56' E 030°17'0 0.0
2014-Nov-11 15:29N 59°56' E 030°17'0 0.0
2014-Nov-11 14:32N 59°56' E 030°17'0 0.0
2014-Nov-11 13:32N 59°56' E 030°17'0 0.0
2014-Nov-11 12:32N 59°56' E 030°17'0 0.0
2014-Nov-11 11:32N 59°56' E 030°17'0 0.0
2014-Nov-11 10:32N 59°56' E 030°17'0 0.0
2014-Nov-11 09:32N 59°56' E 030°17'0 0.0
2014-Nov-11 08:32N 59°56' E 030°17'0 0.0
2014-Nov-11 07:32N 59°56' E 030°17'0 0.0
2014-Nov-11 06:32N 59°56' E 030°17'0 0.0
2014-Nov-11 05:32N 59°56' E 030°17'0 0.0
2014-Nov-11 04:32N 59°56' E 030°17'0 0.0
2014-Nov-11 03:32N 59°56' E 030°17'0 0.0
2014-Nov-11 02:32N 59°56' E 030°17'0 0.0
2014-Nov-11 01:32N 59°56' E 030°17'0 0.0
2014-Nov-11 00:32N 59°56' E 030°17'0 0.0
2014-Nov-10 23:32N 59°56' E 030°17'0 0.0
2014-Nov-10 22:32N 59°56' E 030°17'0 0.0
2014-Nov-10 21:32N 59°56' E 030°17'0 0.0
2014-Nov-10 20:32N 59°56' E 030°17'0 0.0
2014-Nov-10 19:32N 59°56' E 030°17'0 0.0
2014-Nov-10 18:32N 59°56' E 030°17'0 0.0
2014-Nov-10 17:32N 59°56' E 030°17'0 0.0
2014-Nov-10 16:32N 59°56' E 030°17'0 0.0
2014-Nov-10 15:32N 59°56' E 030°17'0 0.0
2014-Nov-10 14:32N 59°56' E 030°17'0 0.0
2014-Nov-10 13:32N 59°56' E 030°17'0 0.0
2014-Nov-10 12:32N 59°56' E 030°17'0 0.0
2014-Nov-10 11:32N 59°56' E 030°17'0 0.0
2014-Nov-10 10:32N 59°56' E 030°17'0 0.0
2014-Nov-10 09:32N 59°56' E 030°17'0 0.0
2014-Nov-10 08:32N 59°56' E 030°17'0 0.0
2014-Nov-10 07:32N 59°56' E 030°17'0 0.0
2014-Nov-10 06:32N 59°56' E 030°17'0 0.0
2014-Nov-10 05:32N 59°56' E 030°17'0 0.0
2014-Nov-10 04:32N 59°56' E 030°17'0 0.0
2014-Nov-10 03:32N 59°56' E 030°17'0 0.0
2014-Nov-10 02:32N 59°56' E 030°17'0 0.0
2014-Nov-10 01:32N 59°56' E 030°17'0 0.0
2014-Nov-10 00:29N 59°56' E 030°17'0 0.0
2014-Nov-09 23:32N 59°56' E 030°17'0 0.0
2014-Nov-09 22:32N 59°56' E 030°17'0 0.0
2014-Nov-09 21:32N 59°56' E 030°17'0 0.0
2014-Nov-09 20:32N 59°56' E 030°17'0 0.0
2014-Nov-09 19:32N 59°56' E 030°17'0 0.0
2014-Nov-09 18:32N 59°56' E 030°17'0 0.0
2014-Nov-09 17:32N 59°56' E 030°17'0 0.0
2014-Nov-09 16:32N 59°56' E 030°17'0 0.0
2014-Nov-09 15:32N 59°56' E 030°17'0 0.0
2014-Nov-09 14:29N 59°56' E 030°17'0 0.0
2014-Nov-09 13:32N 59°56' E 030°17'0 0.0
2014-Nov-09 12:32N 59°56' E 030°17'0 0.0
2014-Nov-09 11:32N 59°56' E 030°17'0 0.0
2014-Nov-09 10:32N 59°56' E 030°17'0 0.0
2014-Nov-09 09:32N 59°56' E 030°17'0 0.0
2014-Nov-09 08:32N 59°56' E 030°17'0 0.0
2014-Nov-09 07:32N 59°56' E 030°17'0 0.0
2014-Nov-09 06:32N 59°56' E 030°17'0 0.0
2014-Nov-09 05:32N 59°56' E 030°17'0 0.0
2014-Nov-09 04:32N 59°56' E 030°17'0 0.0
2014-Nov-09 03:32N 59°56' E 030°17'0 0.0
2014-Nov-09 02:32N 59°56' E 030°17'0 0.0
2014-Nov-09 01:32N 59°56' E 030°17'0 0.0
2014-Nov-09 00:32N 59°56' E 030°17'0 0.0
2014-Nov-08 23:32N 59°56' E 030°17'0 0.0
2014-Nov-08 22:32N 59°56' E 030°17'0 0.0
2014-Nov-08 21:32N 59°56' E 030°17'0 0.0
2014-Nov-08 20:32N 59°56' E 030°17'0 0.0
2014-Nov-08 19:32N 59°56' E 030°17'0 0.0
2014-Nov-08 18:32N 59°56' E 030°17'0 0.0
2014-Nov-08 17:32N 59°56' E 030°17'0 0.0
2014-Nov-08 16:32N 59°56' E 030°17'0 0.0
2014-Nov-08 15:32N 59°56' E 030°17'0 0.0
2014-Nov-08 14:32N 59°56' E 030°17'0 0.0
2014-Nov-08 13:32N 59°56' E 030°17'0 0.0
2014-Nov-08 12:32N 59°56' E 030°17'0 0.0
2014-Nov-08 11:29N 59°56' E 030°17'0 0.0
2014-Nov-08 10:32N 59°56' E 030°17'0 0.0
2014-Nov-08 09:32N 59°56' E 030°17'0 0.0
2014-Nov-08 08:32N 59°56' E 030°17'0 0.0
2014-Nov-08 07:29N 59°56' E 030°17'0 0.0
2014-Nov-08 06:32N 59°56' E 030°17'0 0.0
2014-Nov-08 05:32N 59°56' E 030°17'0 0.0
2014-Nov-08 04:32N 59°56' E 030°17'0 0.0
2014-Nov-08 03:32N 59°56' E 030°17'0 0.0
2014-Nov-08 02:32N 59°56' E 030°17'0 0.0
2014-Nov-08 01:32N 59°56' E 030°17'0 0.0
2014-Nov-08 00:32N 59°56' E 030°17'0 0.0
2014-Nov-07 23:32N 59°56' E 030°17'0 0.0
2014-Nov-07 22:32N 59°56' E 030°17'0 0.0
2014-Nov-07 21:32N 59°56' E 030°17'0 0.0
2014-Nov-07 20:32N 59°56' E 030°17'0 0.0
2014-Nov-07 19:32N 59°56' E 030°17'0 0.0
2014-Nov-07 18:32N 59°56' E 030°17'0 0.0
2014-Nov-07 17:32N 59°56' E 030°17'0 0.0
2014-Nov-07 16:32N 59°56' E 030°17'0 0.0
2014-Nov-07 15:32N 59°56' E 030°17'0 0.0
2014-Nov-07 14:32N 59°56' E 030°17'0 0.0
2014-Nov-07 13:32N 59°56' E 030°17'0 0.0
2014-Nov-07 12:32N 59°56' E 030°17'0 0.0
2014-Nov-07 11:32N 59°56' E 030°17'0 0.0
2014-Nov-07 10:29N 59°56' E 030°17'0 0.0
2014-Nov-07 09:32N 59°56' E 030°17'0 0.0
2014-Nov-07 08:32N 59°56' E 030°17'0 0.0
2014-Nov-07 07:32N 59°56' E 030°17'0 0.0
2014-Nov-07 06:32N 59°56' E 030°17'0 0.0
2014-Nov-07 05:32N 59°56' E 030°17'0 0.0
2014-Nov-07 04:32N 59°56' E 030°17'0 0.0
2014-Nov-07 03:32N 59°56' E 030°17'0 0.0
2014-Nov-07 02:32N 59°56' E 030°17'0 0.0
2014-Nov-07 01:32N 59°56' E 030°17'0 0.0
2014-Nov-07 00:32N 59°56' E 030°17'0 0.0
2014-Nov-06 23:32N 59°56' E 030°17'0 0.0
2014-Nov-06 22:32N 59°56' E 030°17'0 0.0
2014-Nov-06 21:32N 59°56' E 030°17'0 0.0
2014-Nov-06 20:32N 59°56' E 030°17'0 0.0
2014-Nov-06 19:32N 59°56' E 030°17'0 0.0
2014-Nov-06 18:32N 59°56' E 030°17'0 0.0
2014-Nov-06 17:29N 59°56' E 030°17'0 0.0
2014-Nov-06 16:32N 59°56' E 030°17'0 0.0
2014-Nov-06 15:32N 59°56' E 030°17'0 0.0
2014-Nov-06 14:32N 59°56' E 030°17'0 0.0
2014-Nov-06 13:32N 59°56' E 030°17'0 0.0
2014-Nov-06 12:32N 59°56' E 030°17'0 0.0
2014-Nov-06 11:32N 59°56' E 030°17'0 0.0
2014-Nov-06 10:29N 59°56' E 030°17'0 0.0
2014-Nov-06 09:32N 59°56' E 030°17'0 0.0
2014-Nov-06 08:32N 59°56' E 030°17'0 0.0
2014-Nov-06 07:29N 59°56' E 030°17'0 0.0
2014-Nov-06 06:32N 59°56' E 030°17'0 0.0
2014-Nov-06 05:32N 59°56' E 030°17'0 0.0
2014-Nov-06 04:32N 59°56' E 030°17'0 0.0
2014-Nov-06 03:32N 59°56' E 030°17'0 0.0
2014-Nov-06 02:32N 59°56' E 030°17'0 0.0
2014-Nov-06 01:32N 59°56' E 030°17'0 0.0
2014-Nov-06 00:32N 59°56' E 030°17'0 0.0
2014-Nov-05 23:32N 59°56' E 030°17'0 0.0
2014-Nov-05 22:32N 59°56' E 030°17'0 0.0
2014-Nov-05 21:32N 59°56' E 030°17'0 0.0
2014-Nov-05 20:32N 59°56' E 030°17'0 0.0
2014-Nov-05 19:32N 59°56' E 030°17'0 0.0
2014-Nov-05 18:32N 59°56' E 030°17'0 0.0
2014-Nov-05 17:32N 59°56' E 030°17'0 0.0
2014-Nov-05 16:32N 59°56' E 030°17'0 0.0
2014-Nov-05 15:32N 59°56' E 030°17'0 0.0
2014-Nov-05 14:32N 59°56' E 030°17'0 0.0
2014-Nov-05 13:32N 59°56' E 030°17'0 0.0
2014-Nov-05 12:32N 59°56' E 030°17'0 0.0
2014-Nov-05 11:32N 59°56' E 030°17'0 0.0
2014-Nov-05 10:32N 59°56' E 030°17'0 0.0
2014-Nov-05 09:32N 59°56' E 030°17'0 0.0
2014-Nov-05 08:32N 59°56' E 030°17'0 0.0
2014-Nov-05 07:32N 59°56' E 030°17'0 0.0
2014-Nov-05 06:32N 59°56' E 030°17'0 0.0
2014-Nov-05 05:32N 59°56' E 030°17'0 0.0
2014-Nov-05 04:32N 59°56' E 030°17'0 0.0
2014-Nov-05 03:32N 59°56' E 030°17'0 0.0
2014-Nov-05 02:32N 59°56' E 030°17'  

Dump ship's entire track history